sensor_id;sensor_type;location;lat;lon;timestamp;temperature;humidity
12746;DHT22;6437;53.686;10.030;2022-12-18T00:01:56;-2.20;99.90
12746;DHT22;6437;53.686;10.030;2022-12-18T00:05:00;-2.30;99.90
12746;DHT22;6437;53.686;10.030;2022-12-18T00:08:02;-3.40;99.90
12746;DHT22;6437;53.686;10.030;2022-12-18T00:11:05;-2.30;99.90
12746;DHT22;6437;53.686;10.030;2022-12-18T00:14:09;-2.30;99.90
12746;DHT22;6437;53.686;10.030;2022-12-18T00:17:12;-2.30;99.90
12746;DHT22;6437;53.686;10.030;2022-12-18T00:20:15;-3.20;99.90
12746;DHT22;6437;53.686;10.030;2022-12-18T00:23:22;-2.30;99.90
12746;DHT22;6437;53.686;10.030;2022-12-18T00:26:25;-2.30;99.90
12746;DHT22;6437;53.686;10.030;2022-12-18T00:29:27;-2.30;99.90
12746;DHT22;6437;53.686;10.030;2022-12-18T00:32:29;-2.30;99.90
12746;DHT22;6437;53.686;10.030;2022-12-18T00:35:33;-2.30;99.90
12746;DHT22;6437;53.686;10.030;2022-12-18T00:38:34;-2.30;99.90
12746;DHT22;6437;53.686;10.030;2022-12-18T00:41:36;-2.30;99.90
12746;DHT22;6437;53.686;10.030;2022-12-18T00:44:56;-2.20;99.90
12746;DHT22;6437;53.686;10.030;2022-12-18T00:47:57;-2.40;99.90
12746;DHT22;6437;53.686;10.030;2022-12-18T00:51:00;-2.40;99.90
12746;DHT22;6437;53.686;10.030;2022-12-18T00:54:02;-2.40;99.90
12746;DHT22;6437;53.686;10.030;2022-12-18T00:57:04;-2.40;99.90
12746;DHT22;6437;53.686;10.030;2022-12-18T01:00:09;-2.40;99.90
12746;DHT22;6437;53.686;10.030;2022-12-18T01:03:13;-2.40;99.90
12746;DHT22;6437;53.686;10.030;2022-12-18T01:06:17;-2.40;99.90
12746;DHT22;6437;53.686;10.030;2022-12-18T01:09:19;-2.50;99.90
12746;DHT22;6437;53.686;10.030;2022-12-18T01:12:20;-2.50;99.90
12746;DHT22;6437;53.686;10.030;2022-12-18T01:15:22;-2.50;99.90
12746;DHT22;6437;53.686;10.030;2022-12-18T01:18:24;-2.50;99.90
12746;DHT22;6437;53.686;10.030;2022-12-18T01:21:27;-1.70;99.90
12746;DHT22;6437;53.686;10.030;2022-12-18T01:24:29;-1.80;99.90
12746;DHT22;6437;53.686;10.030;2022-12-18T01:27:32;-2.60;99.90
12746;DHT22;6437;53.686;10.030;2022-12-18T01:30:34;-2.20;99.90
12746;DHT22;6437;53.686;10.030;2022-12-18T01:33:36;-2.60;99.90
12746;DHT22;6437;53.686;10.030;2022-12-18T01:36:39;-2.70;99.90
12746;DHT22;6437;53.686;10.030;2022-12-18T01:39:41;-2.70;99.90
12746;DHT22;6437;53.686;10.030;2022-12-18T01:42:43;-2.70;99.90
12746;DHT22;6437;53.686;10.030;2022-12-18T01:45:45;-2.70;99.90
12746;DHT22;6437;53.686;10.030;2022-12-18T01:48:48;-2.70;99.90
12746;DHT22;6437;53.686;10.030;2022-12-18T01:51:52;-2.70;99.90
12746;DHT22;6437;53.686;10.030;2022-12-18T01:54:54;-2.70;99.90
12746;DHT22;6437;53.686;10.030;2022-12-18T01:57:58;-2.70;99.90
12746;DHT22;6437;53.686;10.030;2022-12-18T02:01:01;-2.70;99.90
12746;DHT22;6437;53.686;10.030;2022-12-18T02:04:20;-2.70;99.90
12746;DHT22;6437;53.686;10.030;2022-12-18T02:07:30;-2.70;99.90
12746;DHT22;6437;53.686;10.030;2022-12-18T02:10:41;-2.80;99.90
12746;DHT22;6437;53.686;10.030;2022-12-18T02:13:53;-3.40;99.90
12746;DHT22;6437;53.686;10.030;2022-12-18T02:17:01;-2.80;99.90
12746;DHT22;6437;53.686;10.030;2022-12-18T02:20:10;-2.90;99.90
12746;DHT22;6437;53.686;10.030;2022-12-18T02:23:26;-2.80;99.90
12746;DHT22;6437;53.686;10.030;2022-12-18T02:26:35;-2.80;99.90
12746;DHT22;6437;53.686;10.030;2022-12-18T02:29:42;-2.80;99.90
12746;DHT22;6437;53.686;10.030;2022-12-18T02:32:48;-2.80;99.90
12746;DHT22;6437;53.686;10.030;2022-12-18T02:35:52;-2.90;99.90
12746;DHT22;6437;53.686;10.030;2022-12-18T02:38:56;-2.90;99.90
12746;DHT22;6437;53.686;10.030;2022-12-18T02:42:00;-2.90;99.90
12746;DHT22;6437;53.686;10.030;2022-12-18T02:45:03;-2.90;99.90
12746;DHT22;6437;53.686;10.030;2022-12-18T02:48:05;-2.90;99.90
12746;DHT22;6437;53.686;10.030;2022-12-18T02:51:13;-2.90;99.90
12746;DHT22;6437;53.686;10.030;2022-12-18T02:54:31;-2.90;99.90
12746;DHT22;6437;53.686;10.030;2022-12-18T02:57:42;-2.90;99.90
12746;DHT22;6437;53.686;10.030;2022-12-18T03:00:50;-3.00;99.90
12746;DHT22;6437;53.686;10.030;2022-12-18T03:03:56;-2.90;99.90
12746;DHT22;6437;53.686;10.030;2022-12-18T03:07:03;-2.10;99.90
12746;DHT22;6437;53.686;10.030;2022-12-18T03:10:09;-3.00;99.90
12746;DHT22;6437;53.686;10.030;2022-12-18T03:13:19;-3.00;99.90
12746;DHT22;6437;53.686;10.030;2022-12-18T03:16:24;-3.00;99.90
12746;DHT22;6437;53.686;10.030;2022-12-18T03:19:28;-3.00;99.90
12746;DHT22;6437;53.686;10.030;2022-12-18T03:22:32;-2.90;99.90
12746;DHT22;6437;53.686;10.030;2022-12-18T03:25:38;-3.00;99.90
12746;DHT22;6437;53.686;10.030;2022-12-18T03:28:46;-3.00;99.90
12746;DHT22;6437;53.686;10.030;2022-12-18T03:31:53;-3.00;99.90
12746;DHT22;6437;53.686;10.030;2022-12-18T03:34:59;-3.00;99.90
12746;DHT22;6437;53.686;10.030;2022-12-18T03:38:02;-3.00;99.90
12746;DHT22;6437;53.686;10.030;2022-12-18T03:41:10;-3.10;99.90
12746;DHT22;6437;53.686;10.030;2022-12-18T03:44:22;-3.10;99.90
12746;DHT22;6437;53.686;10.030;2022-12-18T03:47:28;-3.10;99.90
12746;DHT22;6437;53.686;10.030;2022-12-18T03:50:37;-3.10;99.90
12746;DHT22;6437;53.686;10.030;2022-12-18T03:53:44;-3.10;99.90
12746;DHT22;6437;53.686;10.030;2022-12-18T03:56:58;-3.20;99.90
12746;DHT22;6437;53.686;10.030;2022-12-18T04:00:06;-3.10;99.90
12746;DHT22;6437;53.686;10.030;2022-12-18T04:03:10;-3.20;99.90
12746;DHT22;6437;53.686;10.030;2022-12-18T04:06:14;-3.20;99.90
12746;DHT22;6437;53.686;10.030;2022-12-18T04:09:17;-3.20;99.90
12746;DHT22;6437;53.686;10.030;2022-12-18T04:12:19;-3.20;99.90
12746;DHT22;6437;53.686;10.030;2022-12-18T04:15:23;-3.30;99.90
12746;DHT22;6437;53.686;10.030;2022-12-18T04:18:24;-3.30;99.90
12746;DHT22;6437;53.686;10.030;2022-12-18T04:21:26;-3.30;99.90
12746;DHT22;6437;53.686;10.030;2022-12-18T04:24:28;-3.30;99.90
12746;DHT22;6437;53.686;10.030;2022-12-18T04:27:30;-3.30;99.90
12746;DHT22;6437;53.686;10.030;2022-12-18T04:30:33;-3.30;99.90
12746;DHT22;6437;53.686;10.030;2022-12-18T04:33:35;-3.40;99.90
12746;DHT22;6437;53.686;10.030;2022-12-18T04:36:37;-3.40;99.90
12746;DHT22;6437;53.686;10.030;2022-12-18T04:39:38;-3.30;99.90
12746;DHT22;6437;53.686;10.030;2022-12-18T04:42:40;-3.40;99.90
12746;DHT22;6437;53.686;10.030;2022-12-18T04:45:44;-3.40;99.90
12746;DHT22;6437;53.686;10.030;2022-12-18T04:48:46;-3.40;99.90
12746;DHT22;6437;53.686;10.030;2022-12-18T04:51:48;-3.90;99.90
12746;DHT22;6437;53.686;10.030;2022-12-18T04:54:50;-3.40;99.90
12746;DHT22;6437;53.686;10.030;2022-12-18T04:57:51;-3.30;99.90
12746;DHT22;6437;53.686;10.030;2022-12-18T05:00:55;-3.40;99.90
12746;DHT22;6437;53.686;10.030;2022-12-18T05:03:56;-3.40;99.90
12746;DHT22;6437;53.686;10.030;2022-12-18T05:06:58;-3.40;99.90
12746;DHT22;6437;53.686;10.030;2022-12-18T05:10:00;-3.50;99.90
12746;DHT22;6437;53.686;10.030;2022-12-18T05:13:02;-3.40;99.90
12746;DHT22;6437;53.686;10.030;2022-12-18T05:16:07;-3.50;99.90
12746;DHT22;6437;53.686;10.030;2022-12-18T05:19:11;-3.60;99.90
12746;DHT22;6437;53.686;10.030;2022-12-18T05:22:13;-3.50;99.90
12746;DHT22;6437;53.686;10.030;2022-12-18T05:25:15;-3.50;99.90
12746;DHT22;6437;53.686;10.030;2022-12-18T05:28:16;-3.50;99.90
12746;DHT22;6437;53.686;10.030;2022-12-18T05:31:20;-3.50;99.90
12746;DHT22;6437;53.686;10.030;2022-12-18T05:34:21;-3.50;99.90
12746;DHT22;6437;53.686;10.030;2022-12-18T05:37:23;-3.60;99.90
12746;DHT22;6437;53.686;10.030;2022-12-18T05:40:25;-4.60;99.90
12746;DHT22;6437;53.686;10.030;2022-12-18T05:43:27;-3.50;99.90
12746;DHT22;6437;53.686;10.030;2022-12-18T05:46:30;-3.60;99.90
12746;DHT22;6437;53.686;10.030;2022-12-18T05:49:32;-3.60;99.90
12746;DHT22;6437;53.686;10.030;2022-12-18T05:52:34;-3.60;99.90
12746;DHT22;6437;53.686;10.030;2022-12-18T05:55:37;-3.60;99.90
12746;DHT22;6437;53.686;10.030;2022-12-18T05:58:39;-3.70;99.90
12746;DHT22;6437;53.686;10.030;2022-12-18T06:01:42;-3.70;99.90
12746;DHT22;6437;53.686;10.030;2022-12-18T06:04:44;-3.70;99.90
12746;DHT22;6437;53.686;10.030;2022-12-18T06:07:46;-3.70;99.90
12746;DHT22;6437;53.686;10.030;2022-12-18T06:10:50;-3.80;99.90
12746;DHT22;6437;53.686;10.030;2022-12-18T06:13:53;-3.80;99.90
12746;DHT22;6437;53.686;10.030;2022-12-18T06:16:57;-3.80;99.90
12746;DHT22;6437;53.686;10.030;2022-12-18T06:19:59;-2.40;99.90
12746;DHT22;6437;53.686;10.030;2022-12-18T06:23:01;-3.10;99.90
12746;DHT22;6437;53.686;10.030;2022-12-18T06:26:04;-3.80;99.90
12746;DHT22;6437;53.686;10.030;2022-12-18T06:29:06;-4.50;99.90
12746;DHT22;6437;53.686;10.030;2022-12-18T06:32:10;-3.80;99.90
12746;DHT22;6437;53.686;10.030;2022-12-18T06:35:11;-3.80;99.90
12746;DHT22;6437;53.686;10.030;2022-12-18T06:38:13;-3.80;99.90
12746;DHT22;6437;53.686;10.030;2022-12-18T06:41:16;-3.90;99.90
12746;DHT22;6437;53.686;10.030;2022-12-18T06:44:18;-3.90;99.90
12746;DHT22;6437;53.686;10.030;2022-12-18T06:47:22;-3.90;99.90
12746;DHT22;6437;53.686;10.030;2022-12-18T06:50:23;-3.90;99.90
12746;DHT22;6437;53.686;10.030;2022-12-18T06:53:25;-3.90;99.90
12746;DHT22;6437;53.686;10.030;2022-12-18T06:56:28;-3.90;99.90
12746;DHT22;6437;53.686;10.030;2022-12-18T06:59:30;-3.90;99.90
12746;DHT22;6437;53.686;10.030;2022-12-18T07:02:33;-3.80;99.90
12746;DHT22;6437;53.686;10.030;2022-12-18T07:05:36;-3.80;99.90
12746;DHT22;6437;53.686;10.030;2022-12-18T07:08:41;-3.90;99.90
12746;DHT22;6437;53.686;10.030;2022-12-18T07:11:42;-3.90;99.90
12746;DHT22;6437;53.686;10.030;2022-12-18T07:14:44;-3.90;99.90
12746;DHT22;6437;53.686;10.030;2022-12-18T07:17:47;-3.80;99.90
12746;DHT22;6437;53.686;10.030;2022-12-18T07:20:49;-3.90;99.90
12746;DHT22;6437;53.686;10.030;2022-12-18T07:23:51;-4.20;99.90
12746;DHT22;6437;53.686;10.030;2022-12-18T07:26:53;-4.60;99.90
12746;DHT22;6437;53.686;10.030;2022-12-18T07:29:55;-3.20;99.90
12746;DHT22;6437;53.686;10.030;2022-12-18T07:32:59;-3.80;99.90
12746;DHT22;6437;53.686;10.030;2022-12-18T07:36:00;-3.80;99.90
12746;DHT22;6437;53.686;10.030;2022-12-18T07:39:03;-3.80;99.90
12746;DHT22;6437;53.686;10.030;2022-12-18T07:42:05;-3.80;99.90
12746;DHT22;6437;53.686;10.030;2022-12-18T07:45:25;-3.80;99.90
12746;DHT22;6437;53.686;10.030;2022-12-18T07:48:29;-3.80;99.90
12746;DHT22;6437;53.686;10.030;2022-12-18T07:51:30;-3.80;99.90
12746;DHT22;6437;53.686;10.030;2022-12-18T07:54:32;-3.80;99.90
12746;DHT22;6437;53.686;10.030;2022-12-18T07:57:34;-3.80;99.90
12746;DHT22;6437;53.686;10.030;2022-12-18T08:00:36;-3.80;99.90
12746;DHT22;6437;53.686;10.030;2022-12-18T08:03:40;-3.80;99.90
12746;DHT22;6437;53.686;10.030;2022-12-18T08:06:41;-3.80;99.90
12746;DHT22;6437;53.686;10.030;2022-12-18T08:09:43;-3.80;99.90
12746;DHT22;6437;53.686;10.030;2022-12-18T08:12:45;-3.80;99.90
12746;DHT22;6437;53.686;10.030;2022-12-18T08:15:55;-3.70;99.90
12746;DHT22;6437;53.686;10.030;2022-12-18T08:18:59;-3.70;99.90
12746;DHT22;6437;53.686;10.030;2022-12-18T08:22:01;-3.70;99.90
12746;DHT22;6437;53.686;10.030;2022-12-18T08:25:03;-3.70;99.90
12746;DHT22;6437;53.686;10.030;2022-12-18T08:28:05;-3.70;99.90
12746;DHT22;6437;53.686;10.030;2022-12-18T08:31:07;-3.00;99.90
12746;DHT22;6437;53.686;10.030;2022-12-18T08:34:10;-3.60;99.90
12746;DHT22;6437;53.686;10.030;2022-12-18T08:37:12;-3.60;99.90
12746;DHT22;6437;53.686;10.030;2022-12-18T08:40:14;-2.80;99.90
12746;DHT22;6437;53.686;10.030;2022-12-18T08:43:16;-3.60;99.90
12746;DHT22;6437;53.686;10.030;2022-12-18T08:46:37;-3.50;99.90
12746;DHT22;6437;53.686;10.030;2022-12-18T08:49:40;-3.50;99.90
12746;DHT22;6437;53.686;10.030;2022-12-18T08:52:42;-3.50;99.90
12746;DHT22;6437;53.686;10.030;2022-12-18T08:55:44;-3.40;99.90
12746;DHT22;6437;53.686;10.030;2022-12-18T08:58:46;-3.40;99.90
12746;DHT22;6437;53.686;10.030;2022-12-18T09:01:48;-3.30;99.90
12746;DHT22;6437;53.686;10.030;2022-12-18T09:04:51;-3.30;99.90
12746;DHT22;6437;53.686;10.030;2022-12-18T09:07:52;-3.30;99.90
12746;DHT22;6437;53.686;10.030;2022-12-18T09:10:54;-3.20;99.90
12746;DHT22;6437;53.686;10.030;2022-12-18T09:13:57;-3.20;99.90
12746;DHT22;6437;53.686;10.030;2022-12-18T09:16:58;-3.10;99.90
12746;DHT22;6437;53.686;10.030;2022-12-18T09:20:02;-3.10;99.90
12746;DHT22;6437;53.686;10.030;2022-12-18T09:23:04;-3.00;99.90
12746;DHT22;6437;53.686;10.030;2022-12-18T09:26:06;-3.50;99.90
12746;DHT22;6437;53.686;10.030;2022-12-18T09:29:08;-2.90;99.90
12746;DHT22;6437;53.686;10.030;2022-12-18T09:32:10;-2.90;99.90
12746;DHT22;6437;53.686;10.030;2022-12-18T09:35:14;-2.90;99.90
12746;DHT22;6437;53.686;10.030;2022-12-18T09:38:18;-2.80;99.90
12746;DHT22;6437;53.686;10.030;2022-12-18T09:41:33;-2.80;99.90
12746;DHT22;6437;53.686;10.030;2022-12-18T09:44:41;-2.70;99.90
12746;DHT22;6437;53.686;10.030;2022-12-18T09:47:47;-2.60;99.90
12746;DHT22;6437;53.686;10.030;2022-12-18T09:50:54;-2.40;99.90
12746;DHT22;6437;53.686;10.030;2022-12-18T09:54:00;-2.60;99.90
12746;DHT22;6437;53.686;10.030;2022-12-18T09:57:04;-2.50;99.90
12746;DHT22;6437;53.686;10.030;2022-12-18T10:00:15;-2.40;99.90
12746;DHT22;6437;53.686;10.030;2022-12-18T10:03:19;-2.40;99.90
12746;DHT22;6437;53.686;10.030;2022-12-18T10:06:28;-2.30;99.90
12746;DHT22;6437;53.686;10.030;2022-12-18T10:09:37;-2.30;99.90
12746;DHT22;6437;53.686;10.030;2022-12-18T10:12:43;-2.20;99.90
12746;DHT22;6437;53.686;10.030;2022-12-18T10:16:00;-2.10;99.90
12746;DHT22;6437;53.686;10.030;2022-12-18T10:19:18;-2.00;99.90
12746;DHT22;6437;53.686;10.030;2022-12-18T10:22:41;-2.00;99.90
12746;DHT22;6437;53.686;10.030;2022-12-18T10:25:51;-2.00;99.90
12746;DHT22;6437;53.686;10.030;2022-12-18T10:28:56;-1.90;99.90
12746;DHT22;6437;53.686;10.030;2022-12-18T10:31:58;-1.80;99.90
12746;DHT22;6437;53.686;10.030;2022-12-18T10:35:00;-1.70;99.90
12746;DHT22;6437;53.686;10.030;2022-12-18T10:38:07;-1.60;99.90
12746;DHT22;6437;53.686;10.030;2022-12-18T10:41:26;-1.60;99.90
12746;DHT22;6437;53.686;10.030;2022-12-18T10:44:28;-1.50;99.90
12746;DHT22;6437;53.686;10.030;2022-12-18T10:47:30;-1.40;99.90
12746;DHT22;6437;53.686;10.030;2022-12-18T10:50:36;-1.40;99.90
12746;DHT22;6437;53.686;10.030;2022-12-18T10:53:41;-1.20;99.90
12746;DHT22;6437;53.686;10.030;2022-12-18T10:56:44;-1.10;99.90
12746;DHT22;6437;53.686;10.030;2022-12-18T10:59:52;-1.00;99.90
12746;DHT22;6437;53.686;10.030;2022-12-18T11:02:54;-0.90;99.90
12746;DHT22;6437;53.686;10.030;2022-12-18T11:06:02;-0.70;99.90
12746;DHT22;6437;53.686;10.030;2022-12-18T11:09:19;-0.50;99.90
12746;DHT22;6437;53.686;10.030;2022-12-18T11:12:22;-0.40;99.90
12746;DHT22;6437;53.686;10.030;2022-12-18T11:15:27;-0.20;99.90
12746;DHT22;6437;53.686;10.030;2022-12-18T11:18:34;-0.10;99.90
12746;DHT22;6437;53.686;10.030;2022-12-18T11:21:39;0.00;99.90
12746;DHT22;6437;53.686;10.030;2022-12-18T11:24:53;0.00;99.90
12746;DHT22;6437;53.686;10.030;2022-12-18T11:27:57;0.70;99.90
12746;DHT22;6437;53.686;10.030;2022-12-18T11:31:25;0.10;99.90
12746;DHT22;6437;53.686;10.030;2022-12-18T11:34:29;0.10;99.90
12746;DHT22;6437;53.686;10.030;2022-12-18T11:37:33;0.10;99.90
12746;DHT22;6437;53.686;10.030;2022-12-18T11:40:38;0.10;99.90
12746;DHT22;6437;53.686;10.030;2022-12-18T11:43:48;0.10;99.90
12746;DHT22;6437;53.686;10.030;2022-12-18T11:46:55;0.10;99.90
12746;DHT22;6437;53.686;10.030;2022-12-18T11:50:02;0.10;99.90
12746;DHT22;6437;53.686;10.030;2022-12-18T11:53:10;0.10;99.90
12746;DHT22;6437;53.686;10.030;2022-12-18T11:56:27;0.10;99.90
12746;DHT22;6437;53.686;10.030;2022-12-18T11:59:37;0.10;99.90
12746;DHT22;6437;53.686;10.030;2022-12-18T12:03:06;0.10;99.90
12746;DHT22;6437;53.686;10.030;2022-12-18T12:06:15;0.10;99.90
12746;DHT22;6437;53.686;10.030;2022-12-18T12:09:23;0.80;99.90
12746;DHT22;6437;53.686;10.030;2022-12-18T12:12:37;0.10;99.90
12746;DHT22;6437;53.686;10.030;2022-12-18T12:15:54;-0.60;99.90
12746;DHT22;6437;53.686;10.030;2022-12-18T12:19:13;-0.10;99.90
12746;DHT22;6437;53.686;10.030;2022-12-18T12:22:26;0.10;99.90
12746;DHT22;6437;53.686;10.030;2022-12-18T12:25:39;0.10;99.90
12746;DHT22;6437;53.686;10.030;2022-12-18T12:29:07;0.10;99.90
12746;DHT22;6437;53.686;10.030;2022-12-18T12:32:22;0.10;99.90
12746;DHT22;6437;53.686;10.030;2022-12-18T12:35:36;0.10;99.90
12746;DHT22;6437;53.686;10.030;2022-12-18T12:38:42;0.10;99.90
12746;DHT22;6437;53.686;10.030;2022-12-18T12:41:46;0.10;99.90
12746;DHT22;6437;53.686;10.030;2022-12-18T12:45:16;0.10;99.90
12746;DHT22;6437;53.686;10.030;2022-12-18T12:48:27;0.10;99.90
12746;DHT22;6437;53.686;10.030;2022-12-18T12:51:34;0.10;99.90
12746;DHT22;6437;53.686;10.030;2022-12-18T12:54:37;0.10;99.90
12746;DHT22;6437;53.686;10.030;2022-12-18T12:57:41;0.00;99.90
12746;DHT22;6437;53.686;10.030;2022-12-18T13:00:55;0.00;99.90
12746;DHT22;6437;53.686;10.030;2022-12-18T13:04:07;0.10;99.90
12746;DHT22;6437;53.686;10.030;2022-12-18T13:07:14;0.00;99.90
12746;DHT22;6437;53.686;10.030;2022-12-18T13:10:34;0.00;99.90
12746;DHT22;6437;53.686;10.030;2022-12-18T13:13:48;0.00;99.90
12746;DHT22;6437;53.686;10.030;2022-12-18T13:16:50;0.10;99.90
12746;DHT22;6437;53.686;10.030;2022-12-18T13:20:04;0.10;99.90
12746;DHT22;6437;53.686;10.030;2022-12-18T13:23:27;0.10;99.90
12746;DHT22;6437;53.686;10.030;2022-12-18T13:26:32;0.20;99.90
12746;DHT22;6437;53.686;10.030;2022-12-18T13:29:42;0.20;99.90
12746;DHT22;6437;53.686;10.030;2022-12-18T13:32:45;0.20;99.90
12746;DHT22;6437;53.686;10.030;2022-12-18T13:35:52;0.20;99.90
12746;DHT22;6437;53.686;10.030;2022-12-18T13:39:23;0.20;99.90
12746;DHT22;6437;53.686;10.030;2022-12-18T13:42:38;-0.10;99.90
12746;DHT22;6437;53.686;10.030;2022-12-18T13:46:06;0.10;99.90
12746;DHT22;6437;53.686;10.030;2022-12-18T13:49:23;0.10;99.90
12746;DHT22;6437;53.686;10.030;2022-12-18T13:52:28;0.10;99.90
12746;DHT22;6437;53.686;10.030;2022-12-18T13:55:30;0.80;99.90
12746;DHT22;6437;53.686;10.030;2022-12-18T13:58:32;0.10;99.90
12746;DHT22;6437;53.686;10.030;2022-12-18T14:01:34;0.10;99.90
12746;DHT22;6437;53.686;10.030;2022-12-18T14:04:37;0.60;99.90
12746;DHT22;6437;53.686;10.030;2022-12-18T14:07:39;0.00;99.90
12746;DHT22;6437;53.686;10.030;2022-12-18T14:10:42;0.00;99.90
12746;DHT22;6437;53.686;10.030;2022-12-18T14:13:44;0.00;99.90
12746;DHT22;6437;53.686;10.030;2022-12-18T14:16:47;-0.10;99.90
12746;DHT22;6437;53.686;10.030;2022-12-18T14:19:51;-0.10;99.90
12746;DHT22;6437;53.686;10.030;2022-12-18T14:22:53;-0.20;99.90
12746;DHT22;6437;53.686;10.030;2022-12-18T14:25:56;-0.20;99.90
12746;DHT22;6437;53.686;10.030;2022-12-18T14:28:59;-0.30;99.90
12746;DHT22;6437;53.686;10.030;2022-12-18T14:32:09;-0.30;99.90
12746;DHT22;6437;53.686;10.030;2022-12-18T14:35:15;-0.30;99.90
12746;DHT22;6437;53.686;10.030;2022-12-18T14:38:22;-0.40;99.90
12746;DHT22;6437;53.686;10.030;2022-12-18T14:41:24;-0.40;99.90
12746;DHT22;6437;53.686;10.030;2022-12-18T14:44:27;-0.40;99.90
12746;DHT22;6437;53.686;10.030;2022-12-18T14:47:30;-0.50;99.90
12746;DHT22;6437;53.686;10.030;2022-12-18T14:50:35;-1.40;99.90
12746;DHT22;6437;53.686;10.030;2022-12-18T14:53:42;-0.50;99.90
12746;DHT22;6437;53.686;10.030;2022-12-18T14:56:47;-0.50;99.90
12746;DHT22;6437;53.686;10.030;2022-12-18T14:59:51;-0.60;99.90
12746;DHT22;6437;53.686;10.030;2022-12-18T15:02:54;-0.60;99.90
12746;DHT22;6437;53.686;10.030;2022-12-18T15:06:15;-0.60;99.90
12746;DHT22;6437;53.686;10.030;2022-12-18T15:09:23;-0.60;99.90
12746;DHT22;6437;53.686;10.030;2022-12-18T15:12:32;-0.60;99.90
12746;DHT22;6437;53.686;10.030;2022-12-18T15:15:48;-0.70;99.90
12746;DHT22;6437;53.686;10.030;2022-12-18T15:18:50;-0.70;99.90
12746;DHT22;6437;53.686;10.030;2022-12-18T15:21:53;-0.70;99.90
12746;DHT22;6437;53.686;10.030;2022-12-18T15:24:57;-0.70;99.90
12746;DHT22;6437;53.686;10.030;2022-12-18T15:27:59;-0.70;99.90
12746;DHT22;6437;53.686;10.030;2022-12-18T15:31:05;-0.80;99.90
12746;DHT22;6437;53.686;10.030;2022-12-18T15:34:13;-0.80;99.90
12746;DHT22;6437;53.686;10.030;2022-12-18T15:37:17;-0.80;99.90
12746;DHT22;6437;53.686;10.030;2022-12-18T15:40:20;-0.80;99.90
12746;DHT22;6437;53.686;10.030;2022-12-18T15:43:24;-0.80;99.90
12746;DHT22;6437;53.686;10.030;2022-12-18T15:46:35;-0.80;99.90
12746;DHT22;6437;53.686;10.030;2022-12-18T15:49:37;-0.80;99.90
12746;DHT22;6437;53.686;10.030;2022-12-18T15:52:42;-0.90;99.90
12746;DHT22;6437;53.686;10.030;2022-12-18T15:55:44;-0.90;99.90
12746;DHT22;6437;53.686;10.030;2022-12-18T15:59:20;-0.90;99.90
12746;DHT22;6437;53.686;10.030;2022-12-18T16:02:22;-0.90;99.90
12746;DHT22;6437;53.686;10.030;2022-12-18T16:05:24;-1.00;99.90
12746;DHT22;6437;53.686;10.030;2022-12-18T16:08:28;-0.90;99.90
12746;DHT22;6437;53.686;10.030;2022-12-18T16:11:33;-1.00;99.90
12746;DHT22;6437;53.686;10.030;2022-12-18T16:14:42;-1.00;99.90
12746;DHT22;6437;53.686;10.030;2022-12-18T16:17:44;-1.00;99.90
12746;DHT22;6437;53.686;10.030;2022-12-18T16:20:47;-1.10;99.90
12746;DHT22;6437;53.686;10.030;2022-12-18T16:23:50;-1.10;99.90
12746;DHT22;6437;53.686;10.030;2022-12-18T16:26:52;-1.60;99.90
12746;DHT22;6437;53.686;10.030;2022-12-18T16:29:54;-1.20;99.90
12746;DHT22;6437;53.686;10.030;2022-12-18T16:32:56;-1.20;99.90
12746;DHT22;6437;53.686;10.030;2022-12-18T16:35:58;-0.90;99.90
12746;DHT22;6437;53.686;10.030;2022-12-18T16:39:02;-1.30;99.90
12746;DHT22;6437;53.686;10.030;2022-12-18T16:42:06;-1.30;99.90
12746;DHT22;6437;53.686;10.030;2022-12-18T16:45:12;-1.30;99.90
12746;DHT22;6437;53.686;10.030;2022-12-18T16:48:14;-1.30;99.90
12746;DHT22;6437;53.686;10.030;2022-12-18T16:51:16;-1.30;99.90
12746;DHT22;6437;53.686;10.030;2022-12-18T16:54:20;-1.30;99.90
12746;DHT22;6437;53.686;10.030;2022-12-18T16:57:22;-1.30;99.90
12746;DHT22;6437;53.686;10.030;2022-12-18T17:00:24;-1.40;99.90
12746;DHT22;6437;53.686;10.030;2022-12-18T17:03:26;-1.40;99.90
12746;DHT22;6437;53.686;10.030;2022-12-18T17:06:31;-1.40;99.90
12746;DHT22;6437;53.686;10.030;2022-12-18T17:09:35;-1.40;99.90
12746;DHT22;6437;53.686;10.030;2022-12-18T17:12:36;-1.40;99.90
12746;DHT22;6437;53.686;10.030;2022-12-18T17:15:38;-1.40;99.90
12746;DHT22;6437;53.686;10.030;2022-12-18T17:18:40;-1.40;99.90
12746;DHT22;6437;53.686;10.030;2022-12-18T17:21:42;-1.40;99.90
12746;DHT22;6437;53.686;10.030;2022-12-18T17:24:47;-1.40;99.90
12746;DHT22;6437;53.686;10.030;2022-12-18T17:27:55;-1.40;99.90
12746;DHT22;6437;53.686;10.030;2022-12-18T17:30:56;-1.40;99.90
12746;DHT22;6437;53.686;10.030;2022-12-18T17:34:00;-1.50;99.90
12746;DHT22;6437;53.686;10.030;2022-12-18T17:37:03;-1.50;99.90
12746;DHT22;6437;53.686;10.030;2022-12-18T17:40:07;-1.50;99.90
12746;DHT22;6437;53.686;10.030;2022-12-18T17:43:10;-1.50;99.90
12746;DHT22;6437;53.686;10.030;2022-12-18T17:46:13;-1.40;99.90
12746;DHT22;6437;53.686;10.030;2022-12-18T17:49:15;-1.40;99.90
12746;DHT22;6437;53.686;10.030;2022-12-18T17:52:17;-1.50;99.90
12746;DHT22;6437;53.686;10.030;2022-12-18T17:55:21;-1.50;99.90
12746;DHT22;6437;53.686;10.030;2022-12-18T17:58:23;-1.50;99.90
12746;DHT22;6437;53.686;10.030;2022-12-18T18:01:25;-1.50;99.90
12746;DHT22;6437;53.686;10.030;2022-12-18T18:04:27;-1.40;99.90
12746;DHT22;6437;53.686;10.030;2022-12-18T18:07:30;-1.50;99.90
12746;DHT22;6437;53.686;10.030;2022-12-18T18:10:38;-1.50;99.90
12746;DHT22;6437;53.686;10.030;2022-12-18T18:13:40;-1.40;99.90
12746;DHT22;6437;53.686;10.030;2022-12-18T18:16:59;-1.40;99.90
12746;DHT22;6437;53.686;10.030;2022-12-18T18:20:02;-1.40;99.90
12746;DHT22;6437;53.686;10.030;2022-12-18T18:23:05;-1.40;99.90
12746;DHT22;6437;53.686;10.030;2022-12-18T18:26:08;-1.40;99.90
12746;DHT22;6437;53.686;10.030;2022-12-18T18:29:13;-1.40;99.90
12746;DHT22;6437;53.686;10.030;2022-12-18T18:32:15;-1.40;99.90
12746;DHT22;6437;53.686;10.030;2022-12-18T18:35:17;-2.10;99.90
12746;DHT22;6437;53.686;10.030;2022-12-18T18:38:18;-2.10;99.90
12746;DHT22;6437;53.686;10.030;2022-12-18T18:41:21;-1.40;99.90
12746;DHT22;6437;53.686;10.030;2022-12-18T18:44:24;-1.40;99.90
12746;DHT22;6437;53.686;10.030;2022-12-18T18:47:28;-1.30;99.90
12746;DHT22;6437;53.686;10.030;2022-12-18T18:50:30;-1.40;99.90
12746;DHT22;6437;53.686;10.030;2022-12-18T18:53:35;-1.40;99.90
12746;DHT22;6437;53.686;10.030;2022-12-18T18:56:38;-1.40;99.90
12746;DHT22;6437;53.686;10.030;2022-12-18T18:59:40;-1.30;99.90
12746;DHT22;6437;53.686;10.030;2022-12-18T19:02:42;-1.40;99.90
12746;DHT22;6437;53.686;10.030;2022-12-18T19:05:49;-1.40;99.90
12746;DHT22;6437;53.686;10.030;2022-12-18T19:08:52;-1.30;99.90
12746;DHT22;6437;53.686;10.030;2022-12-18T19:11:55;-1.30;99.90
12746;DHT22;6437;53.686;10.030;2022-12-18T19:15:15;-1.30;99.90
12746;DHT22;6437;53.686;10.030;2022-12-18T19:18:17;-1.30;99.90
12746;DHT22;6437;53.686;10.030;2022-12-18T19:21:18;-1.30;99.90
12746;DHT22;6437;53.686;10.030;2022-12-18T19:24:20;-1.30;99.90
12746;DHT22;6437;53.686;10.030;2022-12-18T19:27:24;-1.30;99.90
12746;DHT22;6437;53.686;10.030;2022-12-18T19:30:26;-1.30;99.90
12746;DHT22;6437;53.686;10.030;2022-12-18T19:33:28;-1.30;99.90